sensor_id;sensor_type;location;lat;lon;timestamp;pressure;altitude;pressure_sealevel;temperature;humidity
68941;BME280;55982;51.476;7.552;2022-12-22T00:02:21;98708.97;;;8.59;100.00
68941;BME280;55982;51.476;7.552;2022-12-22T00:05:19;98702.25;;;8.54;100.00
68941;BME280;55982;51.476;7.552;2022-12-22T00:08:04;98696.09;;;8.56;100.00
68941;BME280;55982;51.476;7.552;2022-12-22T00:10:49;98700.50;;;8.54;100.00
68941;BME280;55982;51.476;7.552;2022-12-22T00:13:34;98696.16;;;8.55;100.00
68941;BME280;55982;51.476;7.552;2022-12-22T00:16:18;98685.44;;;8.61;100.00
68941;BME280;55982;51.476;7.552;2022-12-22T00:19:02;98685.41;;;8.62;100.00
68941;BME280;55982;51.476;7.552;2022-12-22T00:21:46;98681.16;;;8.60;100.00
68941;BME280;55982;51.476;7.552;2022-12-22T00:24:30;98685.41;;;8.62;100.00
68941;BME280;55982;51.476;7.552;2022-12-22T00:27:22;98677.44;;;8.65;100.00
68941;BME280;55982;51.476;7.552;2022-12-22T00:30:12;98678.22;;;8.67;100.00
68941;BME280;55982;51.476;7.552;2022-12-22T00:32:56;98677.44;;;8.65;100.00
68941;BME280;55982;51.476;7.552;2022-12-22T00:35:40;98679.13;;;8.66;100.00
68941;BME280;55982;51.476;7.552;2022-12-22T00:38:27;98669.81;;;8.61;100.00
68941;BME280;55982;51.476;7.552;2022-12-22T00:41:10;98667.28;;;8.59;100.00
68941;BME280;55982;51.476;7.552;2022-12-22T00:43:54;98662.06;;;8.59;100.00
68941;BME280;55982;51.476;7.552;2022-12-22T00:46:39;98663.50;;;8.66;100.00
68941;BME280;55982;51.476;7.552;2022-12-22T00:49:26;98660.75;;;8.69;100.00
68941;BME280;55982;51.476;7.552;2022-12-22T00:52:11;98661.59;;;8.70;100.00
68941;BME280;55982;51.476;7.552;2022-12-22T00:54:56;98654.59;;;8.70;100.00
68941;BME280;55982;51.476;7.552;2022-12-22T00:57:40;98648.31;;;8.76;100.00
68941;BME280;55982;51.476;7.552;2022-12-22T01:00:25;98649.28;;;8.73;100.00
68941;BME280;55982;51.476;7.552;2022-12-22T01:03:10;98646.50;;;8.76;100.00
68941;BME280;55982;51.476;7.552;2022-12-22T01:05:54;98649.28;;;8.73;100.00
68941;BME280;55982;51.476;7.552;2022-12-22T01:08:38;98650.84;;;8.77;100.00
68941;BME280;55982;51.476;7.552;2022-12-22T01:11:22;98643.91;;;8.76;100.00
68941;BME280;55982;51.476;7.552;2022-12-22T01:14:14;98643.72;;;8.81;100.00
68941;BME280;55982;51.476;7.552;2022-12-22T01:16:59;98634.06;;;8.83;100.00
68941;BME280;55982;51.476;7.552;2022-12-22T01:19:43;98632.31;;;8.83;100.00
68941;BME280;55982;51.476;7.552;2022-12-22T01:22:28;98615.81;;;8.83;100.00
68941;BME280;55982;51.476;7.552;2022-12-22T01:25:15;98613.91;;;8.86;100.00
68941;BME280;55982;51.476;7.552;2022-12-22T01:27:59;98616.59;;;8.85;100.00
68941;BME280;55982;51.476;7.552;2022-12-22T01:30:43;98611.22;;;8.88;100.00
68941;BME280;55982;51.476;7.552;2022-12-22T01:33:27;98611.91;;;8.91;100.00
68941;BME280;55982;51.476;7.552;2022-12-22T01:36:11;98615.47;;;8.90;100.00
68941;BME280;55982;51.476;7.552;2022-12-22T01:38:55;98606.00;;;8.88;100.00
68941;BME280;55982;51.476;7.552;2022-12-22T01:41:39;98600.78;;;8.88;100.00
68941;BME280;55982;51.476;7.552;2022-12-22T01:44:23;98599.81;;;8.90;100.00
68941;BME280;55982;51.476;7.552;2022-12-22T01:50:11;98592.59;;;8.95;100.00
68941;BME280;55982;51.476;7.552;2022-12-22T01:52:55;98590.94;;;8.94;100.00
68941;BME280;55982;51.476;7.552;2022-12-22T01:55:40;98580.50;;;8.94;100.00
68941;BME280;55982;51.476;7.552;2022-12-22T01:58:33;98576.69;;;9.01;100.00
68941;BME280;55982;51.476;7.552;2022-12-22T02:01:18;98575.00;;;9.00;100.00
68941;BME280;55982;51.476;7.552;2022-12-22T02:04:02;98571.63;;;8.98;100.00
68941;BME280;55982;51.476;7.552;2022-12-22T02:06:48;98563.56;;;9.03;100.00
68941;BME280;55982;51.476;7.552;2022-12-22T02:09:53;98564.41;;;9.03;100.00
68941;BME280;55982;51.476;7.552;2022-12-22T02:13:01;98560.91;;;9.04;100.00
68941;BME280;55982;51.476;7.552;2022-12-22T02:18:44;98550.47;;;9.04;100.00
68941;BME280;55982;51.476;7.552;2022-12-22T02:21:41;98543.56;;;9.03;100.00
68941;BME280;55982;51.476;7.552;2022-12-22T02:24:38;98536.38;;;9.08;100.00
68941;BME280;55982;51.476;7.552;2022-12-22T02:27:23;98528.59;;;9.07;100.00
68941;BME280;55982;51.476;7.552;2022-12-22T02:30:10;98520.72;;;9.08;100.00
68941;BME280;55982;51.476;7.552;2022-12-22T02:32:54;98519.78;;;9.09;100.00
68941;BME280;55982;51.476;7.552;2022-12-22T02:39:10;98504.91;;;9.11;100.00
68941;BME280;55982;51.476;7.552;2022-12-22T02:48:05;98496.16;;;9.12;100.00
68941;BME280;55982;51.476;7.552;2022-12-22T02:51:15;98483.88;;;9.14;100.00
68941;BME280;55982;51.476;7.552;2022-12-22T02:54:01;98477.84;;;9.14;100.00
68941;BME280;55982;51.476;7.552;2022-12-22T02:56:46;98466.53;;;9.13;100.00
68941;BME280;55982;51.476;7.552;2022-12-22T02:59:30;98468.22;;;9.14;100.00
68941;BME280;55982;51.476;7.552;2022-12-22T03:02:14;98463.94;;;9.13;100.00
68941;BME280;55982;51.476;7.552;2022-12-22T03:04:58;98463.00;;;9.14;100.00
68941;BME280;55982;51.476;7.552;2022-12-22T03:07:42;98454.28;;;9.15;100.00
68941;BME280;55982;51.476;7.552;2022-12-22T03:10:27;98452.56;;;9.14;100.00
68941;BME280;55982;51.476;7.552;2022-12-22T03:13:11;98454.09;;;9.18;100.00
68941;BME280;55982;51.476;7.552;2022-12-22T03:15:55;98453.28;;;9.18;100.00
68941;BME280;55982;51.476;7.552;2022-12-22T03:18:39;98448.06;;;9.18;100.00
68941;BME280;55982;51.476;7.552;2022-12-22T03:21:23;98443.69;;;9.18;100.00
68941;BME280;55982;51.476;7.552;2022-12-22T03:24:07;98439.19;;;9.22;100.00
68941;BME280;55982;51.476;7.552;2022-12-22T03:26:51;98434.78;;;9.22;100.00
68941;BME280;55982;51.476;7.552;2022-12-22T03:29:16;98431.19;;;9.25;100.00
68941;BME280;55982;51.476;7.552;2022-12-22T03:31:42;98426.88;;;9.24;100.00
68941;BME280;55982;51.476;7.552;2022-12-22T03:34:07;98424.22;;;9.26;100.00
68941;BME280;55982;51.476;7.552;2022-12-22T03:36:33;98412.75;;;9.28;100.00
68941;BME280;55982;51.476;7.552;2022-12-22T03:38:59;98410.91;;;9.30;100.00
68941;BME280;55982;51.476;7.552;2022-12-22T03:41:24;98408.84;;;9.37;100.00
68941;BME280;55982;51.476;7.552;2022-12-22T03:44:08;98405.38;;;9.36;100.00
68941;BME280;55982;51.476;7.552;2022-12-22T03:46:52;98400.25;;;9.35;100.00
68941;BME280;55982;51.476;7.552;2022-12-22T03:49:18;98392.44;;;9.35;100.00
68941;BME280;55982;51.476;7.552;2022-12-22T03:51:51;98394.25;;;9.33;100.00
68941;BME280;55982;51.476;7.552;2022-12-22T03:54:22;98391.34;;;9.39;100.00
68941;BME280;55982;51.476;7.552;2022-12-22T03:56:48;98383.53;;;9.39;100.00
68941;BME280;55982;51.476;7.552;2022-12-22T03:59:14;98386.91;;;9.41;100.00
68941;BME280;55982;51.476;7.552;2022-12-22T04:01:50;98384.28;;;9.41;100.00
68941;BME280;55982;51.476;7.552;2022-12-22T04:04:17;98383.22;;;9.45;100.00
68941;BME280;55982;51.476;7.552;2022-12-22T04:06:43;98389.25;;;9.45;100.00
68941;BME280;55982;51.476;7.552;2022-12-22T04:09:09;98377.06;;;9.46;100.00
68941;BME280;55982;51.476;7.552;2022-12-22T04:11:34;98379.66;;;9.46;100.00
68941;BME280;55982;51.476;7.552;2022-12-22T04:14:19;98376.28;;;9.44;100.00
68941;BME280;55982;51.476;7.552;2022-12-22T04:16:45;98369.38;;;9.43;100.00
68941;BME280;55982;51.476;7.552;2022-12-22T04:19:10;98363.09;;;9.47;100.00
68941;BME280;55982;51.476;7.552;2022-12-22T04:21:36;98364.16;;;9.43;100.00
68941;BME280;55982;51.476;7.552;2022-12-22T04:24:02;98360.47;;;9.47;100.00
68941;BME280;55982;51.476;7.552;2022-12-22T04:26:28;98362.16;;;9.48;100.00
68941;BME280;55982;51.476;7.552;2022-12-22T04:28:53;98358.63;;;9.49;100.00
68941;BME280;55982;51.476;7.552;2022-12-22T04:31:20;98362.00;;;9.51;100.00
68941;BME280;55982;51.476;7.552;2022-12-22T04:33:46;98349.72;;;9.53;100.00
68941;BME280;55982;51.476;7.552;2022-12-22T04:36:13;98359.16;;;9.55;100.00
68941;BME280;55982;51.476;7.552;2022-12-22T04:38:38;98358.28;;;9.55;100.00
68941;BME280;55982;51.476;7.552;2022-12-22T04:41:05;98358.06;;;9.59;100.00
68941;BME280;55982;51.476;7.552;2022-12-22T04:43:30;98352.75;;;9.61;100.00
68941;BME280;55982;51.476;7.552;2022-12-22T04:45:56;98349.56;;;9.56;100.00
68941;BME280;55982;51.476;7.552;2022-12-22T04:48:22;98347.53;;;9.61;100.00
68941;BME280;55982;51.476;7.552;2022-12-22T04:50:51;98349.38;;;9.59;100.00
68941;BME280;55982;51.476;7.552;2022-12-22T04:53:17;98346.78;;;9.59;100.00
68941;BME280;55982;51.476;7.552;2022-12-22T04:56:00;98344.16;;;9.59;100.00
68941;BME280;55982;51.476;7.552;2022-12-22T04:58:26;98337.81;;;9.64;100.00
68941;BME280;55982;51.476;7.552;2022-12-22T05:00:52;98337.81;;;9.64;100.00
68941;BME280;55982;51.476;7.552;2022-12-22T05:03:17;98325.47;;;9.66;100.00
68941;BME280;55982;51.476;7.552;2022-12-22T05:05:43;98326.31;;;9.67;100.00
68941;BME280;55982;51.476;7.552;2022-12-22T05:08:08;98328.03;;;9.68;100.00
68941;BME280;55982;51.476;7.552;2022-12-22T05:10:34;98326.25;;;9.68;100.00
68941;BME280;55982;51.476;7.552;2022-12-22T05:12:59;98315.88;;;9.67;100.00
68941;BME280;55982;51.476;7.552;2022-12-22T05:15:32;98317.72;;;9.65;100.00
68941;BME280;55982;51.476;7.552;2022-12-22T05:17:59;98310.75;;;9.65;100.00
68941;BME280;55982;51.476;7.552;2022-12-22T05:20:25;98312.50;;;9.65;100.00
68941;BME280;55982;51.476;7.552;2022-12-22T05:22:51;98307.47;;;9.62;100.00
68941;BME280;55982;51.476;7.552;2022-12-22T05:25:16;98309.13;;;9.63;100.00
68941;BME280;55982;51.476;7.552;2022-12-22T05:27:43;98311.75;;;9.63;100.00
68941;BME280;55982;51.476;7.552;2022-12-22T05:30:09;98302.25;;;9.62;100.00
68941;BME280;55982;51.476;7.552;2022-12-22T05:32:35;98300.53;;;9.61;100.00
68941;BME280;55982;51.476;7.552;2022-12-22T05:35:01;98294.75;;;9.56;100.00
68941;BME280;55982;51.476;7.552;2022-12-22T05:37:28;98298.09;;;9.58;100.00
68941;BME280;55982;51.476;7.552;2022-12-22T05:39:53;98298.19;;;9.56;100.00
68941;BME280;55982;51.476;7.552;2022-12-22T05:42:19;98298.03;;;9.59;100.00
68941;BME280;55982;51.476;7.552;2022-12-22T05:45:12;98305.00;;;9.59;100.00
68941;BME280;55982;51.476;7.552;2022-12-22T05:47:40;98302.56;;;9.56;100.00
68941;BME280;55982;51.476;7.552;2022-12-22T05:50:07;98302.25;;;9.62;100.00
68941;BME280;55982;51.476;7.552;2022-12-22T05:52:33;98299.78;;;9.59;100.00
68941;BME280;55982;51.476;7.552;2022-12-22T05:54:59;98297.34;;;9.56;100.00
68941;BME280;55982;51.476;7.552;2022-12-22T05:57:24;98299.03;;;9.57;100.00
68941;BME280;55982;51.476;7.552;2022-12-22T05:59:50;98293.88;;;9.55;100.00
68941;BME280;55982;51.476;7.552;2022-12-22T06:02:15;98299.03;;;9.57;100.00
68941;BME280;55982;51.476;7.552;2022-12-22T06:04:40;98300.88;;;9.55;100.00
68941;BME280;55982;51.476;7.552;2022-12-22T06:07:06;98298.19;;;9.56;100.00
68941;BME280;55982;51.476;7.552;2022-12-22T06:09:31;98291.28;;;9.55;100.00
68941;BME280;55982;51.476;7.552;2022-12-22T06:11:57;98298.03;;;9.59;100.00
68941;BME280;55982;51.476;7.552;2022-12-22T06:14:22;98295.31;;;9.61;100.00
68941;BME280;55982;51.476;7.552;2022-12-22T06:16:47;98292.13;;;9.56;100.00
68941;BME280;55982;51.476;7.552;2022-12-22T06:19:13;98293.97;;;9.54;100.00
68941;BME280;55982;51.476;7.552;2022-12-22T06:21:38;98292.13;;;9.56;100.00
68941;BME280;55982;51.476;7.552;2022-12-22T06:24:04;98292.72;;;9.61;100.00
68941;BME280;55982;51.476;7.552;2022-12-22T06:26:30;98294.66;;;9.57;100.00
68941;BME280;55982;51.476;7.552;2022-12-22T06:28:55;98297.13;;;9.60;100.00
68941;BME280;55982;51.476;7.552;2022-12-22T06:31:20;98297.34;;;9.56;100.00
68941;BME280;55982;51.476;7.552;2022-12-22T06:33:46;98304.09;;;9.60;100.00
68941;BME280;55982;51.476;7.552;2022-12-22T06:36:12;98304.09;;;9.60;100.00
68941;BME280;55982;51.476;7.552;2022-12-22T06:38:37;98302.06;;;9.65;100.00
68941;BME280;55982;51.476;7.552;2022-12-22T06:41:02;98303.91;;;9.63;100.00
68941;BME280;55982;51.476;7.552;2022-12-22T06:43:28;98307.91;;;9.70;100.00
68941;BME280;55982;51.476;7.552;2022-12-22T06:45:53;98303.44;;;9.72;100.00
68941;BME280;55982;51.476;7.552;2022-12-22T06:48:18;98305.44;;;9.67;100.00
68941;BME280;55982;51.476;7.552;2022-12-22T06:50:44;98312.19;;;9.71;100.00
68941;BME280;55982;51.476;7.552;2022-12-22T06:53:10;98310.50;;;9.70;100.00
68941;BME280;55982;51.476;7.552;2022-12-22T06:55:36;98313.38;;;9.65;100.00
68941;BME280;55982;51.476;7.552;2022-12-22T06:58:02;98314.34;;;9.63;100.00
68941;BME280;55982;51.476;7.552;2022-12-22T07:00:28;98326.50;;;9.64;100.00
68941;BME280;55982;51.476;7.552;2022-12-22T07:02:53;98323.81;;;9.65;100.00
68941;BME280;55982;51.476;7.552;2022-12-22T07:05:19;98322.03;;;9.66;100.00
68941;BME280;55982;51.476;7.552;2022-12-22T07:07:44;98324.66;;;9.66;100.00
68941;BME280;55982;51.476;7.552;2022-12-22T07:10:10;98331.53;;;9.67;100.00
68941;BME280;55982;51.476;7.552;2022-12-22T07:12:36;98322.94;;;9.65;100.00
68941;BME280;55982;51.476;7.552;2022-12-22T07:15:01;98335.91;;;9.66;100.00
68941;BME280;55982;51.476;7.552;2022-12-22T07:17:27;98332.50;;;9.66;100.00
68941;BME280;55982;51.476;7.552;2022-12-22T07:19:52;98343.84;;;9.65;100.00
68941;BME280;55982;51.476;7.552;2022-12-22T07:22:17;98336.78;;;9.67;100.00
68941;BME280;55982;51.476;7.552;2022-12-22T07:24:43;98347.75;;;9.73;100.00
68941;BME280;55982;51.476;7.552;2022-12-22T07:27:08;98351.78;;;9.79;100.00
68941;BME280;55982;51.476;7.552;2022-12-22T07:29:34;98348.41;;;9.77;100.00
68941;BME280;55982;51.476;7.552;2022-12-22T07:32:01;98353.13;;;9.86;100.00
68941;BME280;55982;51.476;7.552;2022-12-22T07:34:26;98354.00;;;9.86;100.00
68941;BME280;55982;51.476;7.552;2022-12-22T07:36:51;98363.44;;;9.89;100.00
68941;BME280;55982;51.476;7.552;2022-12-22T07:39:17;98371.63;;;9.98;100.00
68941;BME280;55982;51.476;7.552;2022-12-22T07:41:43;98372.03;;;9.91;100.00
68941;BME280;55982;51.476;7.552;2022-12-22T07:44:27;98383.72;;;9.84;100.00
68941;BME280;55982;51.476;7.552;2022-12-22T07:46:52;98392.75;;;9.94;100.00
68941;BME280;55982;51.476;7.552;2022-12-22T07:49:18;98392.94;;;9.91;100.00
68941;BME280;55982;51.476;7.552;2022-12-22T07:52:02;98389.56;;;9.89;100.00
68941;BME280;55982;51.476;7.552;2022-12-22T07:54:28;98396.78;;;9.84;100.00
68941;BME280;55982;51.476;7.552;2022-12-22T07:56:53;98402.94;;;9.83;100.00
68941;BME280;55982;51.476;7.552;2022-12-22T07:59:19;98413.13;;;9.87;100.00
68941;BME280;55982;51.476;7.552;2022-12-22T08:01:44;98418.84;;;9.78;100.00
68941;BME280;55982;51.476;7.552;2022-12-22T08:04:11;98413.69;;;9.77;100.00
68941;BME280;55982;51.476;7.552;2022-12-22T08:06:37;98423.22;;;9.78;100.00
68941;BME280;55982;51.476;7.552;2022-12-22T08:09:04;98425.38;;;9.87;100.00
68941;BME280;55982;51.476;7.552;2022-12-22T08:11:30;98426.44;;;9.83;100.00
68941;BME280;55982;51.476;7.552;2022-12-22T08:13:55;98431.66;;;9.83;100.00
68941;BME280;55982;51.476;7.552;2022-12-22T08:16:21;98427.97;;;9.87;100.00
68941;BME280;55982;51.476;7.552;2022-12-22T08:18:47;98430.13;;;9.79;100.00
68941;BME280;55982;51.476;7.552;2022-12-22T08:21:14;98444.81;;;9.81;100.00
68941;BME280;55982;51.476;7.552;2022-12-22T08:23:39;98441.63;;;9.92;100.00
68941;BME280;55982;51.476;7.552;2022-12-22T08:26:10;98452.56;;;9.83;100.00
68941;BME280;55982;51.476;7.552;2022-12-22T08:29:03;98457.47;;;9.89;100.00
68941;BME280;55982;51.476;7.552;2022-12-22T08:31:28;98456.06;;;9.82;100.00
68941;BME280;55982;51.476;7.552;2022-12-22T08:33:56;98460.63;;;9.78;100.00
68941;BME280;55982;51.476;7.552;2022-12-22T08:36:23;98454.09;;;9.87;100.00
68941;BME280;55982;51.476;7.552;2022-12-22T08:38:49;98464.69;;;9.84;100.00
68941;BME280;55982;51.476;7.552;2022-12-22T08:41:15;98468.38;;;9.80;100.00
68941;BME280;55982;51.476;7.552;2022-12-22T08:44:00;98474.97;;;9.87;100.00
68941;BME280;55982;51.476;7.552;2022-12-22T08:46:26;98486.06;;;9.75;100.00
68941;BME280;55982;51.476;7.552;2022-12-22T08:48:51;98490.28;;;9.77;100.00
68941;BME280;55982;51.476;7.552;2022-12-22T08:51:16;98498.81;;;9.81;100.00
68941;BME280;55982;51.476;7.552;2022-12-22T08:53:42;98506.63;;;9.81;100.00
68941;BME280;55982;51.476;7.552;2022-12-22T08:56:07;98512.72;;;9.81;100.00
68941;BME280;55982;51.476;7.552;2022-12-22T08:58:33;98525.81;;;9.80;100.00
68941;BME280;55982;51.476;7.552;2022-12-22T09:00:58;98525.22;;;9.75;100.00
68941;BME280;55982;51.476;7.552;2022-12-22T09:03:23;98538.09;;;9.78;100.00
68941;BME280;55982;51.476;7.552;2022-12-22T09:05:49;98543.34;;;9.78;100.00
68941;BME280;55982;51.476;7.552;2022-12-22T09:08:14;98540.13;;;9.73;100.00
68941;BME280;55982;51.476;7.552;2022-12-22T09:10:41;98540.13;;;9.73;100.00
68941;BME280;55982;51.476;7.552;2022-12-22T09:13:07;98547.19;;;9.71;100.00
68941;BME280;55982;51.476;7.552;2022-12-22T09:15:33;98553.34;;;9.70;100.00
68941;BME280;55982;51.476;7.552;2022-12-22T09:17:58;98558.56;;;9.70;100.00
68941;BME280;55982;51.476;7.552;2022-12-22T09:20:24;98558.28;;;9.76;100.00
68941;BME280;55982;51.476;7.552;2022-12-22T09:22:49;98572.31;;;9.73;100.00
68941;BME280;55982;51.476;7.552;2022-12-22T09:25:14;98575.44;;;9.63;100.00
68941;BME280;55982;51.476;7.552;2022-12-22T09:27:42;98570.09;;;9.66;100.00
68941;BME280;55982;51.476;7.552;2022-12-22T09:30:08;98578.59;;;9.69;100.00
68941;BME280;55982;51.476;7.552;2022-12-22T09:32:33;98576.69;;;9.73;100.00
68941;BME280;55982;51.476;7.552;2022-12-22T09:34:59;98580.91;;;9.75;100.00
68941;BME280;55982;51.476;7.552;2022-12-22T09:37:24;98581.78;;;9.76;100.00
68941;BME280;55982;51.476;7.552;2022-12-22T09:39:49;98585.28;;;9.75;100.00
68941;BME280;55982;51.476;7.552;2022-12-22T09:42:18;98585.50;;;9.87;100.00
68941;BME280;55982;51.476;7.552;2022-12-22T09:44:46;98595.81;;;9.90;100.00
68941;BME280;55982;51.476;7.552;2022-12-22T09:47:25;98600.06;;;9.93;100.00
68941;BME280;55982;51.476;7.552;2022-12-22T09:49:54;98595.50;;;9.96;100.00
68941;BME280;55982;51.476;7.552;2022-12-22T09:52:29;98598.16;;;10.13;100.00
68941;BME280;55982;51.476;7.552;2022-12-22T09:55:11;98597.75;;;10.21;100.00
68941;BME280;55982;51.476;7.552;2022-12-22T09:57:37;98609.72;;;10.42;100.00
68941;BME280;55982;51.476;7.552;2022-12-22T10:00:22;98607.72;;;10.47;100.00
68941;BME280;55982;51.476;7.552;2022-12-22T10:05:59;98610.81;;;10.38;100.00
68941;BME280;55982;51.476;7.552;2022-12-22T10:08:31;98614.66;;;10.31;100.00
68941;BME280;55982;51.476;7.552;2022-12-22T10:10:57;98613.03;;;10.29;100.00
68941;BME280;55982;51.476;7.552;2022-12-22T10:13:23;98613.41;;;10.38;100.00
68941;BME280;55982;51.476;7.552;2022-12-22T10:15:48;98623.88;;;10.38;100.00
68941;BME280;55982;51.476;7.552;2022-12-22T10:18:20;98622.56;;;10.47;100.00
68941;BME280;55982;51.476;7.552;2022-12-22T10:21:13;98622.03;;;10.40;100.00
68941;BME280;55982;51.476;7.552;2022-12-22T10:23:45;98629.88;;;10.40;100.00
68941;BME280;55982;51.476;7.552;2022-12-22T10:26:20;98628.00;;;10.59;100.00
68941;BME280;55982;51.476;7.552;2022-12-22T10:28:48;98635.44;;;10.67;100.00
68941;BME280;55982;51.476;7.552;2022-12-22T10:31:20;98628.47;;;10.50;100.00
68941;BME280;55982;51.476;7.552;2022-12-22T10:33:48;98641.09;;;10.42;100.00
68941;BME280;55982;51.476;7.552;2022-12-22T10:36:22;98649.44;;;10.16;100.00
68941;BME280;55982;51.476;7.552;2022-12-22T10:38:59;98652.19;;;10.13;100.00
68941;BME280;55982;51.476;7.552;2022-12-22T10:41:28;98659.72;;;10.19;100.00
68941;BME280;55982;51.476;7.552;2022-12-22T10:43:58;98660.19;;;10.10;100.00
68941;BME280;55982;51.476;7.552;2022-12-22T10:51:33;98677.41;;;9.95;100.00
68941;BME280;55982;51.476;7.552;2022-12-22T10:53:58;98681.03;;;9.93;100.00
68941;BME280;55982;51.476;7.552;2022-12-22T10:56:25;98687.16;;;9.92;100.00
68941;BME280;55982;51.476;7.552;2022-12-22T11:01:31;98709.19;;;9.86;100.00
68941;BME280;55982;51.476;7.552;2022-12-22T11:04:33;98715.69;;;9.78;100.00
68941;BME280;55982;51.476;7.552;2022-12-22T11:06:58;98711.63;;;9.72;100.00
68941;BME280;55982;51.476;7.552;2022-12-22T11:09:25;98725.59;;;9.71;100.00
68941;BME280;55982;51.476;7.552;2022-12-22T11:17:39;98740.97;;;9.59;100.00
68941;BME280;55982;51.476;7.552;2022-12-22T11:23:02;98756.38;;;9.65;100.00
68941;BME280;55982;51.476;7.552;2022-12-22T11:25:43;98753.06;;;9.61;100.00
68941;BME280;55982;51.476;7.552;2022-12-22T11:28:32;98753.75;;;9.65;100.00
68941;BME280;55982;51.476;7.552;2022-12-22T11:34:14;98767.88;;;9.61;100.00
68941;BME280;55982;51.476;7.552;2022-12-22T11:37:03;98773.38;;;9.55;100.00
68941;BME280;55982;51.476;7.552;2022-12-22T11:39:52;98775.41;;;9.67;100.00
68941;BME280;55982;51.476;7.552;2022-12-22T11:42:37;98775.41;;;9.67;100.00
68941;BME280;55982;51.476;7.552;2022-12-22T11:47:57;98786.41;;;9.55;100.00
68941;BME280;55982;51.476;7.552;2022-12-22T11:56:12;98788.81;;;9.41;100.00
68941;BME280;55982;51.476;7.552;2022-12-22T11:59:02;98778.94;;;9.29;100.00
68941;BME280;55982;51.476;7.552;2022-12-22T12:02:18;98772.81;;;9.30;100.00
68941;BME280;55982;51.476;7.552;2022-12-22T12:07:53;98780.06;;;9.42;100.00
68941;BME280;55982;51.476;7.552;2022-12-22T12:10:43;98783.34;;;9.47;100.00
68941;BME280;55982;51.476;7.552;2022-12-22T12:13:25;98792.91;;;9.65;100.00
68941;BME280;55982;51.476;7.552;2022-12-22T12:16:04;98799.69;;;9.69;100.00
68941;BME280;55982;51.476;7.552;2022-12-22T12:18:38;98807.31;;;9.92;100.00
68941;BME280;55982;51.476;7.552;2022-12-22T12:31:38;98799.25;;;9.78;100.00
68941;BME280;55982;51.476;7.552;2022-12-22T12:34:09;98790.88;;;9.53;100.00
68941;BME280;55982;51.476;7.552;2022-12-22T12:42:47;98800.31;;;9.16;100.00
68941;BME280;55982;51.476;7.552;2022-12-22T12:44:42;98814.31;;;9.15;100.00
68941;BME280;55982;51.476;7.552;2022-12-22T12:47:27;98807.00;;;9.23;100.00
68941;BME280;55982;51.476;7.552;2022-12-22T12:55:49;98818.88;;;10.05;100.00
68941;BME280;55982;51.476;7.552;2022-12-22T13:01:00;98818.63;;;10.11;100.00
68941;BME280;55982;51.476;7.552;2022-12-22T13:05:55;98819.16;;;9.99;100.00
68941;BME280;55982;51.476;7.552;2022-12-22T13:08:30;98822.44;;;9.85;100.00
68941;BME280;55982;51.476;7.552;2022-12-22T13:23:36;98819.38;;;9.39;100.00
68941;BME280;55982;51.476;7.552;2022-12-22T13:26:15;98817.03;;;9.33;100.00
68941;BME280;55982;51.476;7.552;2022-12-22T13:28:43;98821.81;;;9.42;100.00
68941;BME280;55982;51.476;7.552;2022-12-22T13:31:20;98820.78;;;9.46;100.00
68941;BME280;55982;51.476;7.552;2022-12-22T13:33:56;98825.72;;;9.52;100.00
68941;BME280;55982;51.476;7.552;2022-12-22T13:36:27;98816.47;;;9.45;100.00
68941;BME280;55982;51.476;7.552;2022-12-22T13:39:19;98816.75;;;9.39;100.00
68941;BME280;55982;51.476;7.552;2022-12-22T13:41:47;98808.56;;;9.28;100.00
68941;BME280;55982;51.476;7.552;2022-12-22T13:44:24;98811.63;;;9.17;100.00
68941;BME280;55982;51.476;7.552;2022-12-22T13:46:52;98822.72;;;9.02;100.00
68941;BME280;55982;51.476;7.552;2022-12-22T13:49:18;98829.16;;;8.93;100.00
68941;BME280;55982;51.476;7.552;2022-12-22T13:51:46;98834.66;;;8.87;100.00
68941;BME280;55982;51.476;7.552;2022-12-22T13:54:16;98835.06;;;8.98;100.00
68941;BME280;55982;51.476;7.552;2022-12-22T13:56:48;98845.00;;;9.09;100.00
68941;BME280;55982;51.476;7.552;2022-12-22T13:59:32;98841.09;;;9.19;100.00
68941;BME280;55982;51.476;7.552;2022-12-22T14:04:35;98857.09;;;9.32;100.00
68941;BME280;55982;51.476;7.552;2022-12-22T14:07:13;98854.34;;;9.35;100.00
68941;BME280;55982;51.476;7.552;2022-12-22T14:09:47;98850.00;;;9.34;100.00
68941;BME280;55982;51.476;7.552;2022-12-22T14:12:38;98852.44;;;9.38;100.00
68941;BME280;55982;51.476;7.552;2022-12-22T14:15:01;98850.94;;;9.33;100.00
68941;BME280;55982;51.476;7.552;2022-12-22T14:17:33;98863.72;;;9.39;100.00
68941;BME280;55982;51.476;7.552;2022-12-22T14:20:02;98848.94;;;9.39;100.00
68941;BME280;55982;51.476;7.552;2022-12-22T14:22:43;98860.06;;;9.43;100.00
68941;BME280;55982;51.476;7.552;2022-12-22T14:25:15;98860.63;;;9.49;100.00
68941;BME280;55982;51.476;7.552;2022-12-22T14:27:46;98851.59;;;9.38;100.00
68941;BME280;55982;51.476;7.552;2022-12-22T14:30:36;98871.31;;;9.24;100.00
68941;BME280;55982;51.476;7.552;2022-12-22T14:35:43;98874.03;;;9.01;100.00
68941;BME280;55982;51.476;7.552;2022-12-22T14:38:17;98876.09;;;8.93;100.00
68941;BME280;55982;51.476;7.552;2022-12-22T14:40:45;98889.59;;;8.83;100.00
68941;BME280;55982;51.476;7.552;2022-12-22T14:45:46;98878.81;;;8.70;100.00
68941;BME280;55982;51.476;7.552;2022-12-22T14:48:24;98864.22;;;8.66;100.00
68941;BME280;55982;51.476;7.552;2022-12-22T14:50:52;98861.25;;;8.54;100.00
68941;BME280;55982;51.476;7.552;2022-12-22T14:53:30;98859.09;;;8.43;100.00
68941;BME280;55982;51.476;7.552;2022-12-22T14:56:00;98861.50;;;8.48;100.00
68941;BME280;55982;51.476;7.552;2022-12-22T14:58:33;98861.38;;;8.29;100.00
68941;BME280;55982;51.476;7.552;2022-12-22T15:03:44;98863.53;;;8.18;100.00
68941;BME280;55982;51.476;7.552;2022-12-22T15:11:41;98866.03;;;7.98;100.00
68941;BME280;55982;51.476;7.552;2022-12-22T15:14:17;98854.97;;;7.93;100.00
68941;BME280;55982;51.476;7.552;2022-12-22T15:16:44;98864.34;;;7.97;100.00
68941;BME280;55982;51.476;7.552;2022-12-22T15:19:13;98848.72;;;7.97;100.00